Time;durP1;ratioP1;P1;durP2;ratioP2;P2;SDS_P1;SDS_P2;PMS_P1;PMS_P2;Temp;Humidity;BMP_temperature;BMP_pressure;BME280_temperature;BME280_humidity;BME280_pressure;Samples;Min_cycle;Max_cycle;Signal;HPM_P1;HPM_P2
2023/07/25 08:47:45;;;;;;;7.10;1.90;;;;;;;15.75;100.00;100564.78;5068039;28;20386;-70
2023/07/25 08:50:16;;;;;;;7.75;2.45;;;;;;;15.84;100.00;100567.84;5070204;28;20369;-71
2023/07/25 08:52:50;;;;;;;7.40;2.20;;;;;;;15.87;100.00;100575.50;5069742;28;20036;-70
2023/07/25 08:55:16;;;;;;;8.15;1.85;;;;;;;16.13;100.00;100568.22;5053972;28;20033;-71
2023/07/25 08:57:42;;;;;;;5.20;1.80;;;;;;;16.22;100.00;100578.63;5053125;28;20036;-71
2023/07/25 09:00:08;;;;;;;10.13;2.20;;;;;;;16.35;93.84;100582.72;5054110;28;20033;-71
2023/07/25 09:02:34;;;;;;;5.38;1.85;;;;;;;16.48;90.74;100577.56;5064448;28;20051;-71
2023/07/25 09:05:00;;;;;;;7.45;1.90;;;;;;;16.58;90.84;100575.94;5074210;28;20017;-72
2023/07/25 09:07:26;;;;;;;10.57;2.10;;;;;;;16.59;95.53;100569.38;5056412;28;20048;-71
2023/07/25 09:09:51;;;;;;;7.55;1.95;;;;;;;16.66;86.13;100581.66;5069717;28;20072;-70
2023/07/25 09:12:17;;;;;;;6.38;2.13;;;;;;;16.77;96.78;100577.06;5067403;28;20029;-72
2023/07/25 09:14:43;;;;;;;7.68;1.80;;;;;;;16.84;85.56;100580.31;5067818;28;20032;-71
2023/07/25 09:17:12;;;;;;;6.22;1.77;;;;;;;16.92;86.20;100583.63;5048949;28;20074;-72
2023/07/25 09:19:38;;;;;;;9.50;2.20;;;;;;;17.06;82.81;100582.00;5047680;28;20029;-72
2023/07/25 09:22:04;;;;;;;9.20;2.42;;;;;;;17.12;79.61;100582.78;5049143;28;20132;-71
2023/07/25 09:24:36;;;;;;;5.68;1.90;;;;;;;17.20;75.17;100586.91;5048440;28;20029;-71
2023/07/25 09:27:01;;;;;;;8.82;1.95;;;;;;;17.25;73.92;100579.47;5049285;28;20079;-73
2023/07/25 09:29:36;;;;;;;6.13;1.63;;;;;;;17.38;75.12;100583.56;5048440;28;20021;-76
2023/07/25 09:32:09;;;;;;;6.07;2.03;;;;;;;17.31;78.23;100577.56;5049103;28;20385;-68
2023/07/25 09:34:34;;;;;;;5.25;1.67;;;;;;;17.47;72.86;100587.38;5056432;28;20024;-71
2023/07/25 09:37:04;;;;;;;4.53;1.33;;;;;;;17.43;70.60;100593.69;5063509;28;20025;-70
2023/07/25 09:39:33;;;;;;;10.18;2.00;;;;;;;17.24;68.21;100602.47;5047846;28;20025;-69
2023/07/25 09:42:00;;;;;;;4.78;1.73;;;;;;;17.12;67.94;100591.81;5049211;28;20037;-74
2023/07/25 09:44:31;;;;;;;5.93;1.95;;;;;;;16.97;70.72;100587.19;5047383;28;20032;-71
2023/07/25 09:46:56;;;;;;;6.35;1.75;;;;;;;16.88;73.57;100604.38;5051295;28;20480;-72
2023/07/25 09:49:22;;;;;;;6.80;1.70;;;;;;;16.79;78.32;100602.19;5063676;28;20025;-70
2023/07/25 09:52:03;;;;;;;5.97;1.60;;;;;;;16.91;76.60;100596.47;5051491;28;20053;-69
2023/07/25 09:54:28;;;;;;;6.87;1.60;;;;;;;17.07;72.12;100602.75;5032596;28;20026;-69
2023/07/25 09:56:53;;;;;;;4.30;1.40;;;;;;;17.13;70.84;100598.91;5047639;28;20551;-73
2023/07/25 09:59:19;;;;;;;6.00;1.58;;;;;;;17.33;71.54;100598.09;5035170;28;20040;-75
2023/07/25 10:01:45;;;;;;;6.43;2.00;;;;;;;17.37;68.30;100592.88;5029819;28;20038;-70
2023/07/25 10:04:11;;;;;;;4.43;1.60;;;;;;;17.48;71.56;100601.84;5032959;28;20464;-69
2023/07/25 10:06:37;;;;;;;7.25;1.65;;;;;;;17.33;67.05;100598.09;5041000;28;20422;-70
2023/07/25 10:09:03;;;;;;;5.00;1.77;;;;;;;17.25;68.64;100600.56;5038614;28;20116;-70
2023/07/25 10:11:30;;;;;;;7.18;1.50;;;;;;;17.11;70.32;100592.09;5033643;28;20060;-71
2023/07/25 10:13:56;;;;;;;4.57;1.45;;;;;;;17.03;68.55;100593.47;5042516;28;20083;-73
2023/07/25 10:16:22;;;;;;;5.10;1.88;;;;;;;17.00;71.43;100597.56;5042173;28;20079;-69
2023/07/25 10:18:54;;;;;;;6.80;1.45;;;;;;;16.97;71.78;100602.78;5054219;28;20060;-70
2023/07/25 10:21:44;;;;;;;5.00;1.77;;;;;;;16.96;71.94;100595.66;5035973;28;20038;-70
2023/07/25 10:24:11;;;;;;;6.47;1.70;;;;;;;17.08;71.93;100598.94;5030361;28;20453;-69
2023/07/25 10:26:52;;;;;;;8.20;1.73;;;;;;;17.24;75.37;100590.69;5033701;28;20057;-71
2023/07/25 10:29:37;;;;;;;5.35;1.45;;;;;;;17.40;73.02;100602.44;5043489;28;20033;-78
2023/07/25 10:32:03;;;;;;;6.45;1.65;;;;;;;17.51;71.11;100588.47;5031976;28;20108;-70
2023/07/25 10:34:52;;;;;;;5.18;1.90;;;;;;;17.71;70.49;100594.97;5034459;28;20124;-71
2023/07/25 10:37:27;;;;;;;5.40;1.48;;;;;;;17.81;66.47;100588.63;5032712;28;20022;-69
2023/07/25 10:40:15;;;;;;;6.63;1.67;;;;;;;17.97;68.75;100598.44;5014987;28;20030;-69
2023/07/25 10:42:50;;;;;;;6.63;1.58;;;;;;;17.88;68.25;100592.69;5018854;28;20025;-70
2023/07/25 10:45:28;;;;;;;7.00;1.73;;;;;;;17.83;66.73;100598.22;5033655;28;20051;-71
2023/07/25 10:47:54;;;;;;;5.90;1.80;;;;;;;17.61;66.11;100601.28;5033247;28;20029;-70
2023/07/25 10:50:25;;;;;;;5.88;1.50;;;;;;;17.49;67.28;100598.84;5033840;28;20037;-70
2023/07/25 10:52:50;;;;;;;5.20;1.65;;;;;;;17.42;66.77;100597.50;5034012;28;20029;-69
2023/07/25 10:55:16;;;;;;;3.25;1.45;;;;;;;17.63;67.55;100601.00;5034039;28;20461;-70
2023/07/25 10:57:41;;;;;;;6.20;1.52;;;;;;;17.84;66.78;100593.53;5031742;28;20051;-69
2023/07/25 11:00:11;;;;;;;6.95;1.65;;;;;;;18.00;62.29;100580.66;5033876;28;20025;-69
2023/07/25 11:02:40;;;;;;;3.83;1.58;;;;;;;18.06;56.86;100590.47;5030406;28;20056;-71
2023/07/25 11:05:12;;;;;;;5.72;1.63;;;;;;;18.12;58.09;100594.00;5031881;28;20037;-72
2023/07/25 11:07:47;;;;;;;5.85;1.50;;;;;;;18.29;59.67;100590.91;5030202;28;20034;-75
2023/07/25 11:10:26;;;;;;;4.20;1.65;;;;;;;18.45;61.87;100592.44;5049157;28;20041;-70
2023/07/25 11:13:00;;;;;;;3.97;1.60;;;;;;;18.36;60.06;100594.16;5050104;28;20028;-77
2023/07/25 11:15:25;;;;;;;4.40;1.55;;;;;;;18.26;61.02;100595.00;5053720;28;20029;-75
2023/07/25 11:17:51;;;;;;;11.70;1.90;;;;;;;18.12;60.17;100594.81;5033443;28;20039;-71
2023/07/25 11:20:18;;;;;;;7.00;1.80;;;;;;;18.00;60.38;100602.56;5030142;28;20045;-71
2023/07/25 11:22:47;;;;;;;6.57;1.55;;;;;;;17.84;61.19;100602.56;5031990;28;20377;-70
2023/07/25 11:25:13;;;;;;;4.07;1.40;;;;;;;17.72;59.58;100599.31;5033680;28;20462;-71
2023/07/25 11:27:46;;;;;;;6.18;1.42;;;;;;;17.75;64.73;100596.03;5032315;28;20489;-70
2023/07/25 11:30:12;;;;;;;4.43;1.42;;;;;;;17.87;65.38;100593.81;5047513;28;20072;-71
2023/07/25 11:32:39;;;;;;;4.72;1.20;;;;;;;17.93;61.24;100599.28;5052922;28;20033;-70
2023/07/25 11:35:07;;;;;;;4.18;1.30;;;;;;;18.13;61.84;100599.19;5032224;28;20111;-71
2023/07/25 11:37:33;;;;;;;4.68;1.30;;;;;;;18.25;57.84;100601.56;5032974;28;20029;-71
2023/07/25 11:40:13;;;;;;;6.35;1.42;;;;;;;18.47;59.55;100595.69;5031438;28;20037;-71
2023/07/25 11:42:46;;;;;;;3.90;1.30;;;;;;;18.68;57.09;100601.03;5038886;28;20064;-71
2023/07/25 11:45:13;;;;;;;10.05;1.52;;;;;;;18.70;55.15;100604.31;5053168;28;20025;-71
2023/07/25 11:47:41;;;;;;;4.85;1.40;;;;;;;18.82;54.19;100606.69;5048343;28;20049;-70
2023/07/25 11:50:09;;;;;;;2.92;1.00;;;;;;;18.73;53.13;100609.22;5036323;28;20441;-70
2023/07/25 11:52:37;;;;;;;6.07;1.27;;;;;;;18.58;54.45;100610.97;5032890;28;20353;-69
2023/07/25 11:55:03;;;;;;;3.70;1.02;;;;;;;18.70;53.71;100615.28;5033193;28;20061;-68
2023/07/25 11:57:29;;;;;;;4.60;1.20;;;;;;;18.84;54.22;100615.44;5031431;28;20468;-69
2023/07/25 11:59:55;;;;;;;3.22;0.90;;;;;;;18.91;52.25;100610.47;5033305;28;20068;-68
2023/07/25 12:02:24;;;;;;;3.22;1.08;;;;;;;19.07;52.15;100608.44;5030139;28;20034;-68
2023/07/25 12:04:50;;;;;;;5.43;1.40;;;;;;;19.07;50.45;100608.44;5038157;28;20036;-67
2023/07/25 12:07:16;;;;;;;3.83;1.10;;;;;;;19.26;52.27;100606.63;5054881;28;20014;-67
2023/07/25 12:09:54;;;;;;;3.50;0.88;;;;;;;19.40;53.36;100600.41;5055206;28;20038;-68
2023/07/25 12:12:20;;;;;;;3.63;1.20;;;;;;;19.13;52.11;100607.28;5032267;28;20033;-68
2023/07/25 12:14:55;;;;;;;4.85;1.20;;;;;;;18.93;54.01;100614.59;5032834;28;20040;-68
2023/07/25 12:17:20;;;;;;;2.58;0.90;;;;;;;18.71;53.10;100606.75;5033370;28;20041;-68
2023/07/25 12:19:53;;;;;;;5.88;1.48;;;;;;;18.68;54.45;100612.00;5052495;28;20031;-67
2023/07/25 12:22:19;;;;;;;3.90;1.30;;;;;;;18.76;53.23;100611.38;5049751;28;20090;-68
2023/07/25 12:24:45;;;;;;;4.15;1.08;;;;;;;19.07;54.46;100619.41;5052483;28;20423;-68
2023/07/25 12:27:18;;;;;;;3.00;0.90;;;;;;;19.30;52.76;100615.88;5052579;28;20024;-68
2023/07/25 12:29:44;;;;;;;3.00;1.10;;;;;;;19.61;53.25;100617.47;5031314;28;20033;-68
2023/07/25 12:32:11;;;;;;;5.93;1.20;;;;;;;19.70;49.64;100609.44;5030817;28;20033;-67
2023/07/25 12:34:36;;;;;;;4.72;1.17;;;;;;;19.90;50.99;100614.72;5032525;28;20109;-68
2023/07/25 12:37:02;;;;;;;3.38;1.23;;;;;;;19.83;48.60;100617.81;5031388;28;20121;-68
2023/07/25 12:39:29;;;;;;;4.43;1.02;;;;;;;19.77;48.76;100612.66;5032741;28;20052;-68
2023/07/25 12:41:55;;;;;;;2.60;0.77;;;;;;;19.65;48.07;100624.03;5033704;28;20136;-68
2023/07/25 12:44:21;;;;;;;4.15;0.98;;;;;;;19.73;46.22;100630.81;5052429;28;20036;-68
2023/07/25 12:46:46;;;;;;;2.63;0.93;;;;;;;19.73;45.79;100631.63;5048270;28;20053;-68
2023/07/25 12:49:11;;;;;;;2.28;0.80;;;;;;;19.82;45.36;100623.59;5030548;28;20033;-68
2023/07/25 12:51:36;;;;;;;3.03;0.90;;;;;;;20.09;47.68;100622.97;5030473;28;20469;-68
2023/07/25 12:54:02;;;;;;;5.95;1.00;;;;;;;20.16;46.21;100611.63;5032589;28;20061;-68
2023/07/25 12:56:27;;;;;;;2.22;0.70;;;;;;;20.15;43.48;100635.53;5032638;28;20033;-68
2023/07/25 12:58:54;;;;;;;3.97;0.95;;;;;;;20.21;43.97;100633.53;5046770;28;20115;-68
2023/07/25 13:01:19;;;;;;;4.53;0.88;;;;;;;20.18;43.18;100631.38;5048666;28;20103;-68
2023/07/25 13:03:45;;;;;;;2.53;0.93;;;;;;;20.21;42.00;100630.78;5043737;28;20431;-67
2023/07/25 13:06:10;;;;;;;2.25;0.80;;;;;;;20.29;41.83;100621.06;5032371;28;20034;-67
2023/07/25 13:08:36;;;;;;;3.78;0.85;;;;;;;20.34;41.59;100623.75;5032666;28;20112;-67
2023/07/25 13:11:01;;;;;;;1.77;0.80;;;;;;;20.36;44.20;100627.00;5031081;28;20025;-68
2023/07/25 13:13:26;;;;;;;1.73;0.90;;;;;;;20.36;44.46;100633.31;5039378;28;20033;-68
2023/07/25 13:15:52;;;;;;;3.40;1.00;;;;;;;20.30;45.20;100634.50;5052014;28;20032;-67
2023/07/25 13:18:17;;;;;;;2.65;1.15;;;;;;;20.30;47.41;100626.25;5047546;28;20033;-68
2023/07/25 13:20:42;;;;;;;3.85;0.80;;;;;;;20.40;45.37;100621.75;5031904;28;20470;-68
2023/07/25 13:23:09;;;;;;;4.60;0.90;;;;;;;20.49;44.26;100630.97;5033968;28;20032;-68
2023/07/25 13:25:38;;;;;;;3.42;0.70;;;;;;;20.42;43.39;100631.31;5025227;28;20044;-68
2023/07/25 13:28:04;;;;;;;1.67;1.00;;;;;;;20.44;43.55;100626.38;5017677;28;20029;-68
2023/07/25 13:30:29;;;;;;;3.65;0.80;;;;;;;20.45;43.93;100616.19;5030980;28;20030;-68
2023/07/25 13:32:55;;;;;;;4.32;0.90;;;;;;;20.59;44.19;100619.00;5032525;28;20037;-68
2023/07/25 13:35:20;;;;;;;2.78;1.02;;;;;;;20.91;45.54;100620.16;5035907;28;20379;-75
2023/07/25 13:37:47;;;;;;;2.85;1.00;;;;;;;20.83;45.77;100624.44;5035454;28;20033;-70
2023/07/25 13:40:13;;;;;;;2.45;0.77;;;;;;;20.89;46.93;100626.81;5035780;28;20033;-68
2023/07/25 13:42:38;;;;;;;4.32;1.63;;;;;;;20.87;45.02;100626.28;5034081;28;20117;-69
2023/07/25 13:45:04;;;;;;;5.78;0.80;;;;;;;21.02;47.14;100627.16;5054330;28;20032;-71
2023/07/25 13:47:29;;;;;;;5.43;1.20;;;;;;;21.08;45.94;100619.63;5053737;28;20055;-69
2023/07/25 13:49:55;;;;;;;2.92;0.80;;;;;;;21.21;47.00;100630.66;5030364;28;20026;-74
2023/07/25 13:52:21;;;;;;;1.95;0.90;;;;;;;21.09;43.90;100629.50;5033906;28;20029;-70
2023/07/25 13:54:46;;;;;;;2.90;0.85;;;;;;;21.15;45.29;100631.03;5046037;28;20059;-75
2023/07/25 13:57:11;;;;;;;4.55;0.80;;;;;;;21.25;46.57;100630.88;5039632;28;20097;-73
2023/07/25 13:59:38;;;;;;;3.13;1.00;;;;;;;21.47;46.30;100643.13;5047306;28;20496;-74
2023/07/25 14:02:11;;;;;;;2.53;0.68;;;;;;;21.24;44.11;100641.06;5050630;28;20412;-74
2023/07/25 14:04:39;;;;;;;3.05;1.02;;;;;;;21.38;45.85;100638.34;5041567;28;20033;-73
2023/07/25 14:07:05;;;;;;;4.10;0.90;;;;;;;21.22;45.28;100643.28;5045602;28;20014;-70
2023/07/25 14:09:30;;;;;;;1.92;0.60;;;;;;;21.32;44.85;100636.81;5026622;28;20041;-70
2023/07/25 14:11:56;;;;;;;4.95;0.65;;;;;;;21.47;45.43;100637.63;5032528;28;20357;-72
2023/07/25 14:14:21;;;;;;;2.40;0.80;;;;;;;21.19;43.88;100637.59;5033222;28;20021;-71
2023/07/25 14:16:46;;;;;;;2.60;0.70;;;;;;;21.05;43.96;100654.88;5045784;28;20045;-70
2023/07/25 14:19:12;;;;;;;2.90;0.60;;;;;;;21.14;44.49;100651.44;5055429;28;20032;-71
2023/07/25 14:21:37;;;;;;;3.22;0.63;;;;;;;21.24;45.11;100651.25;5055060;28;20025;-75
2023/07/25 14:24:03;;;;;;;1.83;1.02;;;;;;;21.11;46.11;100672.09;5050949;28;20029;-68
2023/07/25 14:26:29;;;;;;;2.05;0.90;;;;;;;20.96;45.68;100662.16;5020978;28;20433;-68
2023/07/25 14:28:54;;;;;;;1.77;0.80;;;;;;;20.88;45.74;100663.66;5029158;28;20465;-69
2023/07/25 14:31:19;;;;;;;2.80;0.68;;;;;;;20.91;46.02;100665.00;5027892;28;20029;-67
2023/07/25 14:33:45;;;;;;;2.85;0.70;;;;;;;20.91;44.65;100667.75;5029186;28;20021;-69
2023/07/25 14:36:10;;;;;;;3.35;0.60;;;;;;;20.77;45.10;100658.63;5028299;28;20025;-69
2023/07/25 14:38:35;;;;;;;1.85;0.82;;;;;;;20.89;46.14;100668.06;5043132;28;20030;-73
2023/07/25 14:41:01;;;;;;;2.83;1.00;;;;;;;21.14;45.71;100674.25;5042206;28;20167;-71
2023/07/25 14:43:27;;;;;;;1.65;0.70;;;;;;;21.14;43.57;100681.72;5032489;28;20354;-70
2023/07/25 14:45:53;;;;;;;1.33;0.63;;;;;;;21.11;44.79;100674.88;5029048;28;20050;-69
2023/07/25 14:48:18;;;;;;;3.55;1.00;;;;;;;21.46;45.85;100669.06;5029794;28;20377;-70
2023/07/25 14:50:43;;;;;;;1.80;0.60;;;;;;;21.34;44.18;100689.59;5015493;28;20034;-70
2023/07/25 14:53:09;;;;;;;1.48;0.63;;;;;;;20.93;44.32;100683.97;5026184;28;20025;-72
2023/07/25 14:55:37;;;;;;;3.00;0.82;;;;;;;20.51;45.68;100698.25;5022826;28;20090;-73
2023/07/25 14:58:03;;;;;;;2.42;0.57;;;;;;;20.44;44.33;100695.06;5033698;28;20033;-69
2023/07/25 15:00:28;;;;;;;3.83;0.93;;;;;;;20.68;44.13;100688.72;5032401;28;20033;-69
2023/07/25 15:02:58;;;;;;;2.83;0.80;;;;;;;20.75;45.10;100691.09;5036700;28;20033;-75
2023/07/25 15:05:32;;;;;;;4.43;0.90;;;;;;;20.78;45.78;100696.81;5044257;28;20032;-73
2023/07/25 15:08:03;;;;;;;2.20;0.60;;;;;;;20.86;45.36;100703.59;5050801;28;20377;-67
2023/07/25 15:14:05;;;;;;;2.85;0.57;;;;;;;21.29;46.14;100700.72;5015554;28;20048;-69
2023/07/25 15:16:32;;;;;;;3.80;0.68;;;;;;;21.27;44.68;100708.44;5030733;28;20040;-68
2023/07/25 15:19:03;;;;;;;3.50;0.60;;;;;;;21.30;45.68;100709.78;5028499;28;20025;-69
2023/07/25 15:21:31;;;;;;;2.78;0.90;;;;;;;21.30;43.20;100709.78;5034498;28;20025;-69
2023/07/25 15:23:56;;;;;;;3.45;0.52;;;;;;;21.44;43.95;100702.38;5027653;28;20376;-70
2023/07/25 15:26:21;;;;;;;3.47;0.60;;;;;;;21.66;42.34;100704.47;5013424;28;20389;-78
2023/07/25 15:28:47;;;;;;;4.80;1.00;;;;;;;22.11;42.53;100704.72;5018113;28;20498;-71
2023/07/25 15:31:12;;;;;;;2.40;0.60;;;;;;;22.58;41.76;100707.34;5032459;28;20034;-70
2023/07/25 15:33:38;;;;;;;2.75;0.80;;;;;;;23.44;41.52;100711.13;5033177;28;20480;-71
2023/07/25 15:36:03;;;;;;;2.63;0.68;;;;;;;23.59;39.34;100722.94;5032274;28;20037;-70
2023/07/25 15:38:30;;;;;;;1.08;0.50;;;;;;;23.54;39.92;100727.44;5033378;28;20610;-68
2023/07/25 15:40:55;;;;;;;2.55;0.70;;;;;;;23.49;40.67;100719.31;5033256;28;20573;-69
2023/07/25 15:43:21;;;;;;;2.60;0.70;;;;;;;23.28;40.37;100731.97;5029039;28;20025;-69
2023/07/25 15:45:46;;;;;;;3.47;0.90;;;;;;;23.46;40.39;100728.22;5012916;28;20046;-73
2023/07/25 15:48:16;;;;;;;3.13;1.10;;;;;;;23.56;39.27;100718.84;5030339;28;20163;-76
2023/07/25 15:50:44;;;;;;;3.00;1.03;;;;;;;23.73;40.00;100720.06;5026164;28;20026;-70
2023/07/25 15:53:16;;;;;;;2.97;1.08;;;;;;;23.96;38.75;100720.84;5023519;28;20784;-76
2023/07/25 15:55:42;;;;;;;3.63;1.20;;;;;;;24.38;38.96;100711.09;5028469;28;20033;-69
2023/07/25 15:58:07;;;;;;;3.43;0.87;;;;;;;24.44;38.55;100720.03;5031289;28;20032;-72
